sensor_id;sensor_type;location;lat;lon;timestamp;temperature;humidity
25933;DHT22;13731;51.166;4.474;2023-06-04T00:02:00;14.70;1.00
25933;DHT22;13731;51.166;4.474;2023-06-04T00:04:26;14.70;1.00
25933;DHT22;13731;51.166;4.474;2023-06-04T00:06:51;14.60;1.00
25933;DHT22;13731;51.166;4.474;2023-06-04T00:09:17;14.60;1.00
25933;DHT22;13731;51.166;4.474;2023-06-04T00:11:43;14.60;1.00
25933;DHT22;13731;51.166;4.474;2023-06-04T00:14:11;14.50;1.00
25933;DHT22;13731;51.166;4.474;2023-06-04T00:16:37;14.50;1.00
25933;DHT22;13731;51.166;4.474;2023-06-04T00:19:02;14.50;1.00
25933;DHT22;13731;51.166;4.474;2023-06-04T00:21:28;14.50;1.00
25933;DHT22;13731;51.166;4.474;2023-06-04T00:23:54;14.30;1.00
25933;DHT22;13731;51.166;4.474;2023-06-04T00:26:20;14.40;1.00
25933;DHT22;13731;51.166;4.474;2023-06-04T00:28:47;14.40;1.00
25933;DHT22;13731;51.166;4.474;2023-06-04T00:31:13;14.30;1.00
25933;DHT22;13731;51.166;4.474;2023-06-04T00:33:39;14.30;1.00
25933;DHT22;13731;51.166;4.474;2023-06-04T00:36:05;14.30;1.00
25933;DHT22;13731;51.166;4.474;2023-06-04T00:38:30;14.20;1.00
25933;DHT22;13731;51.166;4.474;2023-06-04T00:40:56;14.20;1.00
25933;DHT22;13731;51.166;4.474;2023-06-04T00:43:22;14.30;1.00
25933;DHT22;13731;51.166;4.474;2023-06-04T00:45:51;14.20;1.00
25933;DHT22;13731;51.166;4.474;2023-06-04T00:48:18;14.20;1.00
25933;DHT22;13731;51.166;4.474;2023-06-04T00:50:44;14.20;1.00
25933;DHT22;13731;51.166;4.474;2023-06-04T00:53:10;14.00;1.00
25933;DHT22;13731;51.166;4.474;2023-06-04T00:55:36;14.10;1.00
25933;DHT22;13731;51.166;4.474;2023-06-04T00:58:02;14.20;1.00
25933;DHT22;13731;51.166;4.474;2023-06-04T01:00:30;14.10;1.00
25933;DHT22;13731;51.166;4.474;2023-06-04T01:02:55;14.10;6.00
25933;DHT22;13731;51.166;4.474;2023-06-04T01:05:29;14.10;23.40
25933;DHT22;13731;51.166;4.474;2023-06-04T01:07:58;14.20;24.90
25933;DHT22;13731;51.166;4.474;2023-06-04T01:10:24;13.90;51.80
25933;DHT22;13731;51.166;4.474;2023-06-04T01:12:53;13.90;68.80
25933;DHT22;13731;51.166;4.474;2023-06-04T01:15:18;13.90;99.90
25933;DHT22;13731;51.166;4.474;2023-06-04T01:17:44;13.80;99.90
25933;DHT22;13731;51.166;4.474;2023-06-04T01:20:22;13.70;99.90
25933;DHT22;13731;51.166;4.474;2023-06-04T01:22:54;13.80;99.90
25933;DHT22;13731;51.166;4.474;2023-06-04T01:25:24;13.80;99.90
25933;DHT22;13731;51.166;4.474;2023-06-04T01:27:52;13.80;99.90
25933;DHT22;13731;51.166;4.474;2023-06-04T01:33:15;13.90;99.90
25933;DHT22;13731;51.166;4.474;2023-06-04T01:35:41;13.80;99.90
25933;DHT22;13731;51.166;4.474;2023-06-04T01:38:07;13.80;99.90
25933;DHT22;13731;51.166;4.474;2023-06-04T01:40:33;13.70;99.90
25933;DHT22;13731;51.166;4.474;2023-06-04T01:42:59;13.80;99.90
25933;DHT22;13731;51.166;4.474;2023-06-04T01:45:26;13.80;99.90
25933;DHT22;13731;51.166;4.474;2023-06-04T01:47:53;13.60;99.90
25933;DHT22;13731;51.166;4.474;2023-06-04T01:50:19;13.60;99.90
25933;DHT22;13731;51.166;4.474;2023-06-04T01:52:45;13.60;99.90
25933;DHT22;13731;51.166;4.474;2023-06-04T01:55:11;13.60;99.90
25933;DHT22;13731;51.166;4.474;2023-06-04T01:57:38;13.50;99.90
25933;DHT22;13731;51.166;4.474;2023-06-04T02:00:05;13.40;99.90
25933;DHT22;13731;51.166;4.474;2023-06-04T02:02:39;13.40;99.90
25933;DHT22;13731;51.166;4.474;2023-06-04T02:05:06;13.50;99.90
25933;DHT22;13731;51.166;4.474;2023-06-04T02:07:33;13.60;99.90
25933;DHT22;13731;51.166;4.474;2023-06-04T02:10:00;13.50;99.90
25933;DHT22;13731;51.166;4.474;2023-06-04T02:12:25;13.60;99.90
25933;DHT22;13731;51.166;4.474;2023-06-04T02:14:51;13.60;99.90
25933;DHT22;13731;51.166;4.474;2023-06-04T02:17:17;13.50;99.90
25933;DHT22;13731;51.166;4.474;2023-06-04T02:19:43;13.30;99.90
25933;DHT22;13731;51.166;4.474;2023-06-04T02:22:16;13.40;99.90
25933;DHT22;13731;51.166;4.474;2023-06-04T02:24:41;13.40;99.90
25933;DHT22;13731;51.166;4.474;2023-06-04T02:27:08;13.30;99.90
25933;DHT22;13731;51.166;4.474;2023-06-04T02:29:35;13.30;99.90
25933;DHT22;13731;51.166;4.474;2023-06-04T02:32:01;13.30;99.90
25933;DHT22;13731;51.166;4.474;2023-06-04T02:34:27;13.30;99.90
25933;DHT22;13731;51.166;4.474;2023-06-04T02:36:52;13.30;99.90
25933;DHT22;13731;51.166;4.474;2023-06-04T02:39:19;13.30;99.90
25933;DHT22;13731;51.166;4.474;2023-06-04T02:41:44;13.10;1.00
25933;DHT22;13731;51.166;4.474;2023-06-04T02:44:10;13.10;1.00
25933;DHT22;13731;51.166;4.474;2023-06-04T02:46:36;13.00;1.00
25933;DHT22;13731;51.166;4.474;2023-06-04T02:49:03;12.90;1.00
25933;DHT22;13731;51.166;4.474;2023-06-04T02:51:28;12.90;1.00
25933;DHT22;13731;51.166;4.474;2023-06-04T02:53:54;12.90;1.00
25933;DHT22;13731;51.166;4.474;2023-06-04T02:56:20;13.00;1.00
25933;DHT22;13731;51.166;4.474;2023-06-04T02:58:53;13.10;1.00
25933;DHT22;13731;51.166;4.474;2023-06-04T03:01:24;13.00;1.00
25933;DHT22;13731;51.166;4.474;2023-06-04T03:03:50;13.00;1.00
25933;DHT22;13731;51.166;4.474;2023-06-04T03:06:17;13.10;1.00
25933;DHT22;13731;51.166;4.474;2023-06-04T03:08:43;12.90;1.00
25933;DHT22;13731;51.166;4.474;2023-06-04T03:11:09;12.80;1.00
25933;DHT22;13731;51.166;4.474;2023-06-04T03:13:35;12.80;1.00
25933;DHT22;13731;51.166;4.474;2023-06-04T03:16:01;12.80;1.00
25933;DHT22;13731;51.166;4.474;2023-06-04T03:18:30;12.90;1.00
25933;DHT22;13731;51.166;4.474;2023-06-04T03:20:56;12.80;1.00
25933;DHT22;13731;51.166;4.474;2023-06-04T03:23:22;12.90;1.00
25933;DHT22;13731;51.166;4.474;2023-06-04T03:25:47;12.90;1.00
25933;DHT22;13731;51.166;4.474;2023-06-04T03:28:13;12.80;1.00
25933;DHT22;13731;51.166;4.474;2023-06-04T03:30:40;12.70;1.00
25933;DHT22;13731;51.166;4.474;2023-06-04T03:33:07;12.70;1.00
25933;DHT22;13731;51.166;4.474;2023-06-04T03:35:33;12.60;1.00
25933;DHT22;13731;51.166;4.474;2023-06-04T03:37:59;12.60;1.00
25933;DHT22;13731;51.166;4.474;2023-06-04T03:40:25;12.70;1.00
25933;DHT22;13731;51.166;4.474;2023-06-04T03:42:51;12.60;1.00
25933;DHT22;13731;51.166;4.474;2023-06-04T03:45:19;12.70;1.00
25933;DHT22;13731;51.166;4.474;2023-06-04T03:47:45;12.50;1.00
25933;DHT22;13731;51.166;4.474;2023-06-04T03:50:11;12.50;2.80
25933;DHT22;13731;51.166;4.474;2023-06-04T03:52:37;12.40;38.80
25933;DHT22;13731;51.166;4.474;2023-06-04T03:55:03;12.50;29.90
25933;DHT22;13731;51.166;4.474;2023-06-04T03:57:29;12.50;5.70
25933;DHT22;13731;51.166;4.474;2023-06-04T03:59:56;12.60;4.00
25933;DHT22;13731;51.166;4.474;2023-06-04T04:02:22;12.70;1.00
25933;DHT22;13731;51.166;4.474;2023-06-04T04:04:49;12.60;1.00
25933;DHT22;13731;51.166;4.474;2023-06-04T04:07:15;12.60;1.00
25933;DHT22;13731;51.166;4.474;2023-06-04T04:09:41;12.60;1.00
25933;DHT22;13731;51.166;4.474;2023-06-04T04:12:07;12.50;1.00
25933;DHT22;13731;51.166;4.474;2023-06-04T04:14:34;12.60;1.00
25933;DHT22;13731;51.166;4.474;2023-06-04T04:17:01;12.60;1.00
25933;DHT22;13731;51.166;4.474;2023-06-04T04:19:28;12.60;1.00
25933;DHT22;13731;51.166;4.474;2023-06-04T04:21:54;12.50;14.90
25933;DHT22;13731;51.166;4.474;2023-06-04T04:24:23;12.60;55.60
25933;DHT22;13731;51.166;4.474;2023-06-04T04:26:50;12.60;4.30
25933;DHT22;13731;51.166;4.474;2023-06-04T04:29:22;12.50;4.30
25933;DHT22;13731;51.166;4.474;2023-06-04T04:31:51;12.70;1.00
25933;DHT22;13731;51.166;4.474;2023-06-04T04:34:18;12.70;1.00
25933;DHT22;13731;51.166;4.474;2023-06-04T04:36:47;12.80;1.00
25933;DHT22;13731;51.166;4.474;2023-06-04T04:39:19;12.80;1.00
25933;DHT22;13731;51.166;4.474;2023-06-04T04:41:45;12.70;1.00
25933;DHT22;13731;51.166;4.474;2023-06-04T04:44:10;12.70;1.00
25933;DHT22;13731;51.166;4.474;2023-06-04T04:46:36;12.70;1.00
25933;DHT22;13731;51.166;4.474;2023-06-04T04:49:02;12.80;1.00
25933;DHT22;13731;51.166;4.474;2023-06-04T04:51:28;12.70;1.00
25933;DHT22;13731;51.166;4.474;2023-06-04T04:53:55;12.90;1.00
25933;DHT22;13731;51.166;4.474;2023-06-04T04:56:22;13.00;1.00
25933;DHT22;13731;51.166;4.474;2023-06-04T04:58:50;13.00;1.00
25933;DHT22;13731;51.166;4.474;2023-06-04T05:01:16;13.10;1.00
25933;DHT22;13731;51.166;4.474;2023-06-04T05:03:42;13.10;1.00
25933;DHT22;13731;51.166;4.474;2023-06-04T05:06:10;13.20;1.00
25933;DHT22;13731;51.166;4.474;2023-06-04T05:08:36;13.20;1.00
25933;DHT22;13731;51.166;4.474;2023-06-04T05:11:02;13.20;1.00
25933;DHT22;13731;51.166;4.474;2023-06-04T05:13:28;13.20;1.00
25933;DHT22;13731;51.166;4.474;2023-06-04T05:15:59;13.20;1.00
25933;DHT22;13731;51.166;4.474;2023-06-04T05:18:36;13.30;1.00
25933;DHT22;13731;51.166;4.474;2023-06-04T05:21:07;13.20;1.00
25933;DHT22;13731;51.166;4.474;2023-06-04T05:23:40;13.20;1.00
25933;DHT22;13731;51.166;4.474;2023-06-04T05:26:07;13.30;1.00
25933;DHT22;13731;51.166;4.474;2023-06-04T05:28:33;13.40;1.00
25933;DHT22;13731;51.166;4.474;2023-06-04T05:31:00;13.40;1.00
25933;DHT22;13731;51.166;4.474;2023-06-04T05:33:30;13.50;1.00
25933;DHT22;13731;51.166;4.474;2023-06-04T05:36:00;13.70;1.00
25933;DHT22;13731;51.166;4.474;2023-06-04T05:38:29;13.70;1.00
25933;DHT22;13731;51.166;4.474;2023-06-04T05:41:00;13.80;1.00
25933;DHT22;13731;51.166;4.474;2023-06-04T05:43:30;14.10;1.00
25933;DHT22;13731;51.166;4.474;2023-06-04T05:45:56;14.40;99.90
25933;DHT22;13731;51.166;4.474;2023-06-04T05:48:22;14.30;99.90
25933;DHT22;13731;51.166;4.474;2023-06-04T05:50:48;14.40;99.90
25933;DHT22;13731;51.166;4.474;2023-06-04T05:53:15;14.30;99.90
25933;DHT22;13731;51.166;4.474;2023-06-04T05:55:42;14.30;99.90
25933;DHT22;13731;51.166;4.474;2023-06-04T05:58:08;14.30;99.90
25933;DHT22;13731;51.166;4.474;2023-06-04T06:00:33;14.40;99.90
25933;DHT22;13731;51.166;4.474;2023-06-04T06:03:00;14.50;99.90
25933;DHT22;13731;51.166;4.474;2023-06-04T06:05:37;14.40;99.90
25933;DHT22;13731;51.166;4.474;2023-06-04T06:08:03;14.50;99.90
25933;DHT22;13731;51.166;4.474;2023-06-04T06:10:30;14.60;99.90
25933;DHT22;13731;51.166;4.474;2023-06-04T06:12:56;14.60;99.90
25933;DHT22;13731;51.166;4.474;2023-06-04T06:15:21;14.80;99.90
25933;DHT22;13731;51.166;4.474;2023-06-04T06:17:49;15.00;99.90
25933;DHT22;13731;51.166;4.474;2023-06-04T06:20:15;15.00;99.90
25933;DHT22;13731;51.166;4.474;2023-06-04T06:22:44;15.00;99.90
25933;DHT22;13731;51.166;4.474;2023-06-04T06:25:10;15.00;99.90
25933;DHT22;13731;51.166;4.474;2023-06-04T06:27:46;15.20;99.90
25933;DHT22;13731;51.166;4.474;2023-06-04T06:30:15;15.40;99.90
25933;DHT22;13731;51.166;4.474;2023-06-04T06:32:41;15.60;99.90
25933;DHT22;13731;51.166;4.474;2023-06-04T06:35:07;15.90;99.90
25933;DHT22;13731;51.166;4.474;2023-06-04T06:37:33;15.90;99.90
25933;DHT22;13731;51.166;4.474;2023-06-04T06:39:59;15.70;99.90
25933;DHT22;13731;51.166;4.474;2023-06-04T06:42:24;15.80;99.90
25933;DHT22;13731;51.166;4.474;2023-06-04T06:44:51;15.80;99.90
25933;DHT22;13731;51.166;4.474;2023-06-04T06:47:17;15.70;99.90
25933;DHT22;13731;51.166;4.474;2023-06-04T06:49:43;15.80;99.90
25933;DHT22;13731;51.166;4.474;2023-06-04T06:52:09;15.90;99.90
25933;DHT22;13731;51.166;4.474;2023-06-04T06:54:35;16.00;99.90
25933;DHT22;13731;51.166;4.474;2023-06-04T06:57:00;16.20;99.90
25933;DHT22;13731;51.166;4.474;2023-06-04T06:59:28;16.40;99.90
25933;DHT22;13731;51.166;4.474;2023-06-04T07:01:54;16.40;96.10
25933;DHT22;13731;51.166;4.474;2023-06-04T07:04:19;16.40;95.90
25933;DHT22;13731;51.166;4.474;2023-06-04T07:06:46;16.50;95.20
25933;DHT22;13731;51.166;4.474;2023-06-04T07:09:12;16.70;90.90
25933;DHT22;13731;51.166;4.474;2023-06-04T07:11:38;16.80;80.30
25933;DHT22;13731;51.166;4.474;2023-06-04T07:14:04;16.80;56.90
25933;DHT22;13731;51.166;4.474;2023-06-04T07:16:30;16.90;48.20
25933;DHT22;13731;51.166;4.474;2023-06-04T07:18:55;17.00;35.40
25933;DHT22;13731;51.166;4.474;2023-06-04T07:21:21;17.00;34.30
25933;DHT22;13731;51.166;4.474;2023-06-04T07:23:49;17.10;29.60
25933;DHT22;13731;51.166;4.474;2023-06-04T07:26:16;17.30;27.00
25933;DHT22;13731;51.166;4.474;2023-06-04T07:28:43;17.40;25.40
25933;DHT22;13731;51.166;4.474;2023-06-04T07:31:09;17.40;25.20
25933;DHT22;13731;51.166;4.474;2023-06-04T07:33:35;17.60;13.30
25933;DHT22;13731;51.166;4.474;2023-06-04T07:36:14;17.70;5.90
25933;DHT22;13731;51.166;4.474;2023-06-04T07:38:40;17.70;1.40
25933;DHT22;13731;51.166;4.474;2023-06-04T07:41:06;17.60;1.00
25933;DHT22;13731;51.166;4.474;2023-06-04T07:43:35;17.70;1.00
25933;DHT22;13731;51.166;4.474;2023-06-04T07:46:04;17.80;1.00
25933;DHT22;13731;51.166;4.474;2023-06-04T07:48:30;18.00;1.00
25933;DHT22;13731;51.166;4.474;2023-06-04T07:50:59;18.10;1.00
25933;DHT22;13731;51.166;4.474;2023-06-04T07:53:25;18.30;1.00
25933;DHT22;13731;51.166;4.474;2023-06-04T07:55:51;18.30;1.00
25933;DHT22;13731;51.166;4.474;2023-06-04T07:58:17;18.40;1.00
25933;DHT22;13731;51.166;4.474;2023-06-04T08:00:43;18.60;1.00
25933;DHT22;13731;51.166;4.474;2023-06-04T08:03:08;18.80;1.00
25933;DHT22;13731;51.166;4.474;2023-06-04T08:05:35;18.90;1.00
25933;DHT22;13731;51.166;4.474;2023-06-04T08:08:01;18.90;1.00
25933;DHT22;13731;51.166;4.474;2023-06-04T08:10:27;19.00;1.00
25933;DHT22;13731;51.166;4.474;2023-06-04T08:12:52;19.10;1.00
25933;DHT22;13731;51.166;4.474;2023-06-04T08:15:18;19.20;1.00
25933;DHT22;13731;51.166;4.474;2023-06-04T08:17:44;19.30;1.00
25933;DHT22;13731;51.166;4.474;2023-06-04T08:20:09;19.30;1.00
25933;DHT22;13731;51.166;4.474;2023-06-04T08:22:37;19.40;1.00
25933;DHT22;13731;51.166;4.474;2023-06-04T08:25:03;19.40;1.00
25933;DHT22;13731;51.166;4.474;2023-06-04T08:27:30;19.30;1.00
25933;DHT22;13731;51.166;4.474;2023-06-04T08:29:56;19.50;1.00
25933;DHT22;13731;51.166;4.474;2023-06-04T08:32:23;19.60;1.00
25933;DHT22;13731;51.166;4.474;2023-06-04T08:34:49;19.80;1.00
25933;DHT22;13731;51.166;4.474;2023-06-04T08:37:16;19.70;1.00
25933;DHT22;13731;51.166;4.474;2023-06-04T08:39:42;19.80;1.00
25933;DHT22;13731;51.166;4.474;2023-06-04T08:42:09;19.90;1.00
25933;DHT22;13731;51.166;4.474;2023-06-04T08:44:37;20.20;1.00
25933;DHT22;13731;51.166;4.474;2023-06-04T08:47:04;20.40;1.00
25933;DHT22;13731;51.166;4.474;2023-06-04T08:49:33;20.50;1.00
25933;DHT22;13731;51.166;4.474;2023-06-04T08:52:00;20.60;1.00
25933;DHT22;13731;51.166;4.474;2023-06-04T08:54:26;20.60;1.00
25933;DHT22;13731;51.166;4.474;2023-06-04T08:56:51;20.60;1.00
25933;DHT22;13731;51.166;4.474;2023-06-04T08:59:17;20.70;1.00
25933;DHT22;13731;51.166;4.474;2023-06-04T09:01:43;20.70;1.00
25933;DHT22;13731;51.166;4.474;2023-06-04T09:04:10;20.80;1.00
25933;DHT22;13731;51.166;4.474;2023-06-04T09:06:36;20.80;1.00
25933;DHT22;13731;51.166;4.474;2023-06-04T09:09:03;20.90;1.00
25933;DHT22;13731;51.166;4.474;2023-06-04T09:11:35;21.00;1.00
25933;DHT22;13731;51.166;4.474;2023-06-04T09:14:01;20.90;1.00
25933;DHT22;13731;51.166;4.474;2023-06-04T09:16:29;21.00;1.00
25933;DHT22;13731;51.166;4.474;2023-06-04T09:19:02;21.10;1.00
25933;DHT22;13731;51.166;4.474;2023-06-04T09:21:27;21.40;1.00
25933;DHT22;13731;51.166;4.474;2023-06-04T09:23:53;21.60;1.00
25933;DHT22;13731;51.166;4.474;2023-06-04T09:26:19;21.80;1.00
25933;DHT22;13731;51.166;4.474;2023-06-04T09:28:47;21.80;1.00
25933;DHT22;13731;51.166;4.474;2023-06-04T09:31:16;22.00;1.00
25933;DHT22;13731;51.166;4.474;2023-06-04T09:33:45;21.90;1.00
25933;DHT22;13731;51.166;4.474;2023-06-04T09:36:11;21.80;1.00
25933;DHT22;13731;51.166;4.474;2023-06-04T09:38:37;21.80;1.00
25933;DHT22;13731;51.166;4.474;2023-06-04T09:41:04;22.00;1.00
25933;DHT22;13731;51.166;4.474;2023-06-04T09:43:31;22.20;1.00
25933;DHT22;13731;51.166;4.474;2023-06-04T09:46:14;22.50;1.00
25933;DHT22;13731;51.166;4.474;2023-06-04T09:48:40;22.60;1.00
25933;DHT22;13731;51.166;4.474;2023-06-04T09:51:10;22.60;1.00
25933;DHT22;13731;51.166;4.474;2023-06-04T09:53:36;22.50;1.00
25933;DHT22;13731;51.166;4.474;2023-06-04T09:56:02;22.70;1.00
25933;DHT22;13731;51.166;4.474;2023-06-04T09:58:37;22.70;1.00
25933;DHT22;13731;51.166;4.474;2023-06-04T10:01:06;22.40;1.00
25933;DHT22;13731;51.166;4.474;2023-06-04T10:03:35;22.60;1.00
25933;DHT22;13731;51.166;4.474;2023-06-04T10:06:04;22.80;1.00
25933;DHT22;13731;51.166;4.474;2023-06-04T10:08:31;23.30;1.00
25933;DHT22;13731;51.166;4.474;2023-06-04T10:11:00;24.20;1.00
25933;DHT22;13731;51.166;4.474;2023-06-04T10:13:27;25.60;1.00
25933;DHT22;13731;51.166;4.474;2023-06-04T10:15:56;26.20;1.00
25933;DHT22;13731;51.166;4.474;2023-06-04T10:18:22;26.70;1.00
25933;DHT22;13731;51.166;4.474;2023-06-04T10:20:49;27.60;1.00
25933;DHT22;13731;51.166;4.474;2023-06-04T10:23:14;28.00;1.00
25933;DHT22;13731;51.166;4.474;2023-06-04T10:25:43;28.50;1.00
25933;DHT22;13731;51.166;4.474;2023-06-04T10:28:09;28.90;1.00
25933;DHT22;13731;51.166;4.474;2023-06-04T10:30:35;30.20;1.00
25933;DHT22;13731;51.166;4.474;2023-06-04T10:33:01;29.10;1.00
25933;DHT22;13731;51.166;4.474;2023-06-04T10:35:30;29.10;1.00
25933;DHT22;13731;51.166;4.474;2023-06-04T10:40:34;28.90;1.00
25933;DHT22;13731;51.166;4.474;2023-06-04T10:45:32;28.70;1.00
25933;DHT22;13731;51.166;4.474;2023-06-04T10:48:04;29.40;1.00
25933;DHT22;13731;51.166;4.474;2023-06-04T10:50:33;29.10;1.00
25933;DHT22;13731;51.166;4.474;2023-06-04T10:53:00;29.10;1.00
25933;DHT22;13731;51.166;4.474;2023-06-04T10:55:30;30.40;1.00
25933;DHT22;13731;51.166;4.474;2023-06-04T10:58:00;30.50;1.00
25933;DHT22;13731;51.166;4.474;2023-06-04T11:00:46;30.20;1.00
25933;DHT22;13731;51.166;4.474;2023-06-04T11:03:12;30.90;1.00
25933;DHT22;13731;51.166;4.474;2023-06-04T11:08:04;31.60;1.00
25933;DHT22;13731;51.166;4.474;2023-06-04T11:10:32;30.70;1.00
25933;DHT22;13731;51.166;4.474;2023-06-04T11:12:59;30.80;1.00
25933;DHT22;13731;51.166;4.474;2023-06-04T11:15:25;30.70;1.00
25933;DHT22;13731;51.166;4.474;2023-06-04T11:17:54;30.60;1.00
25933;DHT22;13731;51.166;4.474;2023-06-04T11:20:21;30.10;1.00
25933;DHT22;13731;51.166;4.474;2023-06-04T11:23:05;30.50;1.00
25933;DHT22;13731;51.166;4.474;2023-06-04T11:25:31;29.90;1.00
25933;DHT22;13731;51.166;4.474;2023-06-04T11:27:58;28.60;1.00
25933;DHT22;13731;51.166;4.474;2023-06-04T11:30:25;28.70;1.00
25933;DHT22;13731;51.166;4.474;2023-06-04T11:32:59;28.90;1.00
25933;DHT22;13731;51.166;4.474;2023-06-04T11:35:25;29.00;1.00
25933;DHT22;13731;51.166;4.474;2023-06-04T11:37:54;29.30;1.00
25933;DHT22;13731;51.166;4.474;2023-06-04T11:40:21;31.00;1.00
25933;DHT22;13731;51.166;4.474;2023-06-04T11:42:47;30.00;1.00
25933;DHT22;13731;51.166;4.474;2023-06-04T11:45:13;29.20;1.00
25933;DHT22;13731;51.166;4.474;2023-06-04T11:47:41;30.20;1.00
25933;DHT22;13731;51.166;4.474;2023-06-04T11:50:09;30.30;1.00
25933;DHT22;13731;51.166;4.474;2023-06-04T11:52:36;31.60;1.00
25933;DHT22;13731;51.166;4.474;2023-06-04T11:55:02;31.60;1.00
25933;DHT22;13731;51.166;4.474;2023-06-04T11:57:27;30.80;1.00
25933;DHT22;13731;51.166;4.474;2023-06-04T11:59:53;30.70;1.00
25933;DHT22;13731;51.166;4.474;2023-06-04T12:02:19;30.10;1.00
25933;DHT22;13731;51.166;4.474;2023-06-04T12:04:45;31.80;1.00
25933;DHT22;13731;51.166;4.474;2023-06-04T12:07:11;34.10;1.00
25933;DHT22;13731;51.166;4.474;2023-06-04T12:09:44;33.00;1.00
25933;DHT22;13731;51.166;4.474;2023-06-04T12:12:10;33.70;1.00
25933;DHT22;13731;51.166;4.474;2023-06-04T12:14:37;33.20;1.00
25933;DHT22;13731;51.166;4.474;2023-06-04T12:17:07;31.10;1.00
25933;DHT22;13731;51.166;4.474;2023-06-04T12:19:33;29.90;1.00
25933;DHT22;13731;51.166;4.474;2023-06-04T12:22:06;30.70;1.00
25933;DHT22;13731;51.166;4.474;2023-06-04T12:24:32;33.30;1.00
25933;DHT22;13731;51.166;4.474;2023-06-04T12:27:09;34.40;1.00
25933;DHT22;13731;51.166;4.474;2023-06-04T12:29:35;34.20;1.00
25933;DHT22;13731;51.166;4.474;2023-06-04T12:32:02;32.70;1.00
25933;DHT22;13731;51.166;4.474;2023-06-04T12:34:29;31.90;1.00
25933;DHT22;13731;51.166;4.474;2023-06-04T12:36:55;32.40;1.00
25933;DHT22;13731;51.166;4.474;2023-06-04T12:39:20;34.30;1.00
25933;DHT22;13731;51.166;4.474;2023-06-04T12:41:46;32.90;1.00
25933;DHT22;13731;51.166;4.474;2023-06-04T12:44:12;32.60;1.00
25933;DHT22;13731;51.166;4.474;2023-06-04T12:46:38;32.90;1.00
25933;DHT22;13731;51.166;4.474;2023-06-04T12:49:03;34.20;1.00
25933;DHT22;13731;51.166;4.474;2023-06-04T12:51:30;34.70;1.00
25933;DHT22;13731;51.166;4.474;2023-06-04T12:53:57;34.80;1.00
25933;DHT22;13731;51.166;4.474;2023-06-04T12:56:23;35.10;1.00
25933;DHT22;13731;51.166;4.474;2023-06-04T12:58:48;36.60;1.00
25933;DHT22;13731;51.166;4.474;2023-06-04T13:01:14;37.20;1.00
25933;DHT22;13731;51.166;4.474;2023-06-04T13:03:40;35.10;1.00
25933;DHT22;13731;51.166;4.474;2023-06-04T13:06:06;33.80;1.00
25933;DHT22;13731;51.166;4.474;2023-06-04T13:08:32;34.50;1.00
25933;DHT22;13731;51.166;4.474;2023-06-04T13:10:58;35.10;1.00
25933;DHT22;13731;51.166;4.474;2023-06-04T13:13:24;36.00;1.00
25933;DHT22;13731;51.166;4.474;2023-06-04T13:15:50;36.40;1.00
25933;DHT22;13731;51.166;4.474;2023-06-04T13:18:16;35.70;1.00
25933;DHT22;13731;51.166;4.474;2023-06-04T13:20:42;35.80;1.00
25933;DHT22;13731;51.166;4.474;2023-06-04T13:23:08;34.70;1.00
25933;DHT22;13731;51.166;4.474;2023-06-04T13:25:33;34.40;1.00
25933;DHT22;13731;51.166;4.474;2023-06-04T13:28:00;34.90;1.00
25933;DHT22;13731;51.166;4.474;2023-06-04T13:30:25;35.00;1.00
25933;DHT22;13731;51.166;4.474;2023-06-04T13:32:52;34.40;1.00
25933;DHT22;13731;51.166;4.474;2023-06-04T13:35:18;35.50;1.00
25933;DHT22;13731;51.166;4.474;2023-06-04T13:37:43;35.00;1.00
25933;DHT22;13731;51.166;4.474;2023-06-04T13:40:09;36.30;1.00
25933;DHT22;13731;51.166;4.474;2023-06-04T13:42:35;35.60;1.00
25933;DHT22;13731;51.166;4.474;2023-06-04T13:45:01;34.70;1.00
25933;DHT22;13731;51.166;4.474;2023-06-04T13:47:27;34.10;1.00
25933;DHT22;13731;51.166;4.474;2023-06-04T13:49:52;35.50;1.00
25933;DHT22;13731;51.166;4.474;2023-06-04T13:52:18;35.80;1.00
25933;DHT22;13731;51.166;4.474;2023-06-04T13:54:44;36.80;1.00
25933;DHT22;13731;51.166;4.474;2023-06-04T13:57:10;38.10;1.00
25933;DHT22;13731;51.166;4.474;2023-06-04T13:59:39;36.70;1.00
25933;DHT22;13731;51.166;4.474;2023-06-04T14:02:04;34.90;1.00
25933;DHT22;13731;51.166;4.474;2023-06-04T14:04:31;36.10;1.00
25933;DHT22;13731;51.166;4.474;2023-06-04T14:06:56;37.90;1.00
25933;DHT22;13731;51.166;4.474;2023-06-04T14:09:22;37.70;1.00
25933;DHT22;13731;51.166;4.474;2023-06-04T14:11:48;37.80;1.00
25933;DHT22;13731;51.166;4.474;2023-06-04T14:14:16;38.20;1.00
25933;DHT22;13731;51.166;4.474;2023-06-04T14:16:46;37.90;1.00
25933;DHT22;13731;51.166;4.474;2023-06-04T14:19:12;38.80;1.00
25933;DHT22;13731;51.166;4.474;2023-06-04T14:21:38;37.20;1.00
25933;DHT22;13731;51.166;4.474;2023-06-04T14:24:04;37.50;1.00
25933;DHT22;13731;51.166;4.474;2023-06-04T14:26:30;37.80;1.00
25933;DHT22;13731;51.166;4.474;2023-06-04T14:28:56;36.60;1.00
25933;DHT22;13731;51.166;4.474;2023-06-04T14:31:22;38.20;1.00
25933;DHT22;13731;51.166;4.474;2023-06-04T14:33:47;36.90;1.00
25933;DHT22;13731;51.166;4.474;2023-06-04T14:36:13;35.80;1.00
25933;DHT22;13731;51.166;4.474;2023-06-04T14:38:39;34.40;1.00
25933;DHT22;13731;51.166;4.474;2023-06-04T14:41:05;34.10;1.00
25933;DHT22;13731;51.166;4.474;2023-06-04T14:43:30;36.00;1.00
25933;DHT22;13731;51.166;4.474;2023-06-04T14:45:56;37.80;1.00
25933;DHT22;13731;51.166;4.474;2023-06-04T14:48:22;37.90;1.00
25933;DHT22;13731;51.166;4.474;2023-06-04T14:50:48;36.80;1.00
25933;DHT22;13731;51.166;4.474;2023-06-04T14:53:14;36.50;1.00
25933;DHT22;13731;51.166;4.474;2023-06-04T14:55:41;38.10;1.00
25933;DHT22;13731;51.166;4.474;2023-06-04T14:58:07;38.90;1.00
25933;DHT22;13731;51.166;4.474;2023-06-04T15:00:32;37.60;1.00
25933;DHT22;13731;51.166;4.474;2023-06-04T15:02:58;37.00;1.00
25933;DHT22;13731;51.166;4.474;2023-06-04T15:05:27;35.60;1.00
25933;DHT22;13731;51.166;4.474;2023-06-04T15:07:53;33.90;1.00
25933;DHT22;13731;51.166;4.474;2023-06-04T15:10:18;33.40;1.00
25933;DHT22;13731;51.166;4.474;2023-06-04T15:12:44;32.60;1.00
25933;DHT22;13731;51.166;4.474;2023-06-04T15:15:10;33.30;1.00
25933;DHT22;13731;51.166;4.474;2023-06-04T15:17:36;35.00;1.00
25933;DHT22;13731;51.166;4.474;2023-06-04T15:20:02;34.60;1.00
25933;DHT22;13731;51.166;4.474;2023-06-04T15:22:28;34.70;1.00
25933;DHT22;13731;51.166;4.474;2023-06-04T15:24:53;36.80;1.00
25933;DHT22;13731;51.166;4.474;2023-06-04T15:27:19;38.00;1.00
25933;DHT22;13731;51.166;4.474;2023-06-04T15:29:45;36.90;1.00
25933;DHT22;13731;51.166;4.474;2023-06-04T15:32:11;36.00;1.00
25933;DHT22;13731;51.166;4.474;2023-06-04T15:34:36;36.60;1.00
25933;DHT22;13731;51.166;4.474;2023-06-04T15:37:02;36.70;1.00
25933;DHT22;13731;51.166;4.474;2023-06-04T15:39:28;36.00;1.00
25933;DHT22;13731;51.166;4.474;2023-06-04T15:41:54;34.90;1.00
25933;DHT22;13731;51.166;4.474;2023-06-04T15:44:20;35.50;1.00
25933;DHT22;13731;51.166;4.474;2023-06-04T15:46:45;33.20;1.00
25933;DHT22;13731;51.166;4.474;2023-06-04T15:49:11;33.80;1.00
25933;DHT22;13731;51.166;4.474;2023-06-04T15:51:37;34.20;1.00